.
WxDataArchive / Data Records for 2008-11-09
2008-11-08 November 2008 2008-11-10

Data Records for Sunday, 09 November 2008

Time	Temp	Chill	HIndex	Humid	Dewpt	 Wind 	HiWind	WindDir	Rain 	Barom 
-----	----	-----	------	-----	-----	------	------	-------	-----	----- 
00:00	36.9	36.9	36.9	84	32.5	3	11	248	0.00	29.713 
00:05	36.9	36.9	36.9	84	32.5	3	7	270	0.00	29.715 
00:10	36.9	33.7	36.9	84	32.5	4	6	248	0.00	29.712 
00:15	36.9	36.9	36.9	84	32.5	3	8	248	0.00	29.712 
00:20	36.9	36.9	36.9	84	32.5	2	6	248	0.00	29.711 
00:25	37.0	33.9	37.0	84	32.6	4	11	248	0.00	29.711 
00:30	37.0	33.9	37.0	84	32.6	4	14	248	0.00	29.712 
00:35	37.0	33.9	37.0	84	32.6	4	12	248	0.00	29.712 
00:40	37.0	37.0	37.0	84	32.6	3	12	248	0.00	29.711 
00:45	37.0	37.0	37.0	84	32.6	3	10	270	0.00	29.712 
00:50	37.0	33.9	37.0	84	32.6	4	7	248	0.00	29.713 
00:55	37.0	37.0	37.0	84	32.6	3	10	248	0.00	29.714 
01:00	37.0	37.0	37.0	84	32.6	3	6	248	0.00	29.711 
01:05	37.0	37.0	37.0	84	32.6	3	7	248	0.00	29.713 
01:10	37.0	37.0	37.0	84	32.6	3	9	270	0.00	29.710 
01:15	37.0	33.9	37.0	84	32.6	4	7	248	0.00	29.710 
01:20	37.0	37.0	37.0	84	32.6	2	6	248	0.00	29.710 
01:25	37.0	33.9	37.0	84	32.6	4	11	270	0.00	29.711 
01:30	37.0	37.0	37.0	84	32.6	3	9	248	0.00	29.713 
01:35	37.0	37.0	37.0	84	32.6	3	9	270	0.00	29.715 
01:40	37.0	37.0	37.0	84	32.6	3	10	248	0.00	29.716 
01:45	37.0	37.0	37.0	84	32.6	2	7	248	0.00	29.720 
01:50	37.0	33.9	37.0	84	32.6	4	9	248	0.00	29.721 
01:55	37.0	33.9	37.0	84	32.6	4	10	248	0.00	29.720 
02:00	37.0	37.0	37.0	84	32.6	3	9	248	0.00	29.721 
02:05	37.0	37.0	37.0	84	32.6	2	7	248	0.00	29.720 
02:10	37.0	37.0	37.0	84	32.6	3	11	248	0.00	29.719 
02:15	37.0	37.0	37.0	84	32.6	3	7	248	0.00	29.721 
02:20	37.0	37.0	37.0	84	32.6	3	10	248	0.00	29.722 
02:25	37.0	37.0	37.0	84	32.6	3	11	248	0.00	29.722 
02:30	37.0	37.0	37.0	84	32.6	3	9	248	0.00	29.723 
02:35	37.0	37.0	37.0	84	32.6	3	7	248	0.00	29.723 
02:40	37.0	37.0	37.0	84	32.6	3	7	270	0.00	29.722 
02:45	37.0	37.0	37.0	84	32.6	3	10	248	0.00	29.723 
02:50	37.0	37.0	37.0	83	32.3	3	9	248	0.00	29.724 
02:55	37.0	37.0	37.0	83	32.3	3	9	248	0.00	29.725 
03:00	37.2	34.1	37.2	83	32.5	4	10	248	0.00	29.727 
03:05	37.2	34.1	37.2	83	32.5	4	12	248	0.00	29.728 
03:10	37.2	37.2	37.2	83	32.5	3	10	248	0.00	29.728 
03:15	37.2	37.2	37.2	83	32.5	2	7	248	0.00	29.728 
03:20	37.2	37.2	37.2	83	32.5	3	11	248	0.00	29.729 
03:25	37.2	37.2	37.2	83	32.5	3	6	248	0.00	29.730 
03:30	37.2	34.1	37.2	83	32.5	4	10	248	0.00	29.729 
03:35	37.2	34.1	37.2	83	32.5	4	10	248	0.00	29.730 
03:40	37.2	34.1	37.2	83	32.5	4	12	270	0.00	29.732 
03:45	37.2	34.1	37.2	83	32.5	4	11	248	0.00	29.734 
03:50	37.2	37.2	37.2	83	32.5	2	6	248	0.00	29.736 
03:55	37.2	37.2	37.2	83	32.5	3	9	248	0.00	29.733 
04:00	37.2	34.1	37.2	83	32.5	4	10	248	0.00	29.736 
04:05	37.2	37.2	37.2	84	32.8	3	7	248	0.00	29.736 
04:10	37.2	37.2	37.2	84	32.8	2	6	248	0.00	29.739 
04:15	37.2	37.2	37.2	84	32.8	3	10	248	0.00	29.739 
04:20	37.2	37.2	37.2	84	32.8	3	9	248	0.00	29.741 
04:25	37.2	34.1	37.2	84	32.8	4	10	248	0.00	29.742 
04:30	37.2	37.2	37.2	84	32.8	3	7	248	0.00	29.740 
04:35	37.2	37.2	37.2	84	32.8	3	7	248	0.00	29.742 
04:40	37.2	37.2	37.2	84	32.8	2	7	270	0.00	29.742 
04:45	37.0	37.0	37.0	84	32.6	3	9	270	0.00	29.743 
04:50	37.2	34.1	37.2	84	32.8	4	11	270	0.00	29.744 
04:55	37.2	34.1	37.2	84	32.8	4	12	270	0.00	29.745 
05:00	37.2	34.1	37.2	84	32.8	4	7	270	0.00	29.748 
05:05	37.0	33.9	37.0	84	32.6	4	8	248	0.00	29.748 
05:10	37.0	33.9	37.0	84	32.6	4	7	248	0.00	29.750 
05:15	37.0	37.0	37.0	84	32.6	3	11	270	0.00	29.752 
05:20	37.0	33.9	37.0	84	32.6	4	10	248	0.00	29.754 
05:25	37.0	37.0	37.0	85	32.9	2	6	248	0.00	29.755 
05:30	37.0	37.0	37.0	85	32.9	3	10	248	0.00	29.755 
05:35	37.0	37.0	37.0	85	32.9	3	10	248	0.00	29.756 
05:40	37.0	33.9	37.0	84	32.6	4	9	248	0.00	29.758 
05:45	37.0	33.9	37.0	84	32.6	4	8	270	0.00	29.759 
05:50	36.9	36.9	36.9	84	32.5	3	9	248	0.00	29.760 
05:55	36.9	36.9	36.9	84	32.5	3	6	248	0.00	29.761 
06:00	36.9	36.9	36.9	84	32.5	3	7	248	0.00	29.762 
06:05	36.9	33.7	36.9	84	32.5	4	10	270	0.00	29.762 
06:10	36.9	36.9	36.9	84	32.5	2	5	248	0.00	29.763 
06:15	36.9	36.9	36.9	84	32.5	3	7	248	0.00	29.764 
06:20	36.8	36.8	36.8	84	32.4	3	9	270	0.00	29.762 
06:25	36.8	36.8	36.8	84	32.4	3	10	248	0.00	29.762 
06:30	36.6	33.4	36.6	85	32.5	4	10	270	0.00	29.766 
06:35	36.6	36.6	36.6	85	32.5	3	10	248	0.00	29.767 
06:40	36.6	33.4	36.6	85	32.5	4	13	270	0.00	29.773 
06:45	36.5	36.5	36.5	85	32.4	2	5	270	0.00	29.776 
06:50	36.5	36.5	36.5	86	32.7	3	6	248	0.00	29.776 
06:55	36.5	36.5	36.5	86	32.7	3	10	225	0.00	29.776 
07:00	36.3	33.0	36.3	86	32.5	4	10	270	0.00	29.777 
07:05	36.2	32.9	36.2	86	32.4	4	7	270	0.00	29.780 
07:10	36.2	32.9	36.2	87	32.7	4	11	270	0.00	29.781 
07:15	36.2	36.2	36.2	87	32.7	3	7	248	0.00	29.784 
07:20	36.2	36.2	36.2	87	32.7	3	7	248	0.00	29.787 
07:25	36.2	36.2	36.2	87	32.7	3	9	248	0.00	29.789 
07:30	36.2	32.9	36.2	87	32.7	4	10	270	0.00	29.791 
07:35	36.2	32.9	36.2	87	32.7	4	10	270	0.00	29.792 
07:40	36.2	32.0	36.2	87	32.7	5	11	270	0.00	29.793 
07:45	36.2	36.2	36.2	87	32.7	3	7	248	0.00	29.793 
07:50	36.2	36.2	36.2	87	32.7	3	9	225	0.00	29.799 
07:55	36.2	36.2	36.2	87	32.7	2	6	270	0.00	29.799 
08:00	36.2	32.9	36.2	87	32.7	4	10	270	0.00	29.805 
08:05	36.2	32.0	36.2	87	32.7	5	13	270	0.00	29.807 
08:10	36.0	32.7	36.0	88	32.8	4	13	248	0.00	29.808 
08:15	36.0	36.0	36.0	88	32.8	3	6	248	0.00	29.809 
08:20	36.0	36.0	36.0	88	32.8	3	10	248	0.00	29.810 
08:25	36.0	36.0	36.0	89	33.1	3	7	248	0.00	29.809 
08:30	36.0	36.0	36.0	89	33.1	3	7	248	0.00	29.811 
08:35	36.0	36.0	36.0	89	33.1	3	7	248	0.00	29.812 
08:40	36.0	36.0	36.0	89	33.1	3	8	248	0.00	29.812 
08:45	36.0	36.0	36.0	89	33.1	3	9	248	0.00	29.814 
08:50	36.2	36.2	36.2	89	33.3	3	5	248	0.01	29.812 
08:55	36.2	32.9	36.2	89	33.3	4	10	248	0.00	29.812 
09:00	36.0	36.0	36.0	89	33.1	3	8	248	0.00	29.816 
09:05	35.9	35.9	35.9	89	33.0	2	7	248	0.00	29.817 
09:10	35.8	32.5	35.8	89	32.9	4	11	270	0.00	29.815 
09:15	35.8	35.8	35.8	90	33.2	2	7	248	0.00	29.817 
09:20	35.9	35.9	35.9	90	33.3	3	9	248	0.00	29.819 
09:25	35.9	35.9	35.9	90	33.3	3	9	248	0.01	29.821 
09:30	36.0	36.0	36.0	90	33.4	2	5	248	0.00	29.820 
09:35	36.0	36.0	36.0	90	33.4	3	10	248	0.00	29.822 
09:40	36.0	36.0	36.0	90	33.4	3	10	248	0.00	29.823 
09:45	36.2	32.9	36.2	90	33.6	4	7	248	0.00	29.823 
09:50	36.2	36.2	36.2	90	33.6	3	7	248	0.00	29.823 
09:55	36.2	32.9	36.2	90	33.6	4	10	248	0.00	29.823 
10:00	36.3	36.3	36.3	90	33.7	3	9	248	0.00	29.824 
10:05	36.5	36.5	36.5	90	33.9	3	10	248	0.00	29.826 
10:10	36.5	36.5	36.5	90	33.9	3	8	248	0.00	29.825 
10:15	36.5	36.5	36.5	90	33.9	3	9	248	0.00	29.824 
10:20	36.5	33.3	36.5	89	33.6	4	10	248	0.00	29.826 
10:25	36.5	36.5	36.5	89	33.6	3	9	248	0.00	29.826 
10:30	36.5	36.5	36.5	90	33.9	3	6	248	0.00	29.831 
10:35	36.5	36.5	36.5	90	33.9	3	6	248	0.00	29.833 
10:40	36.5	36.5	36.5	90	33.9	3	10	248	0.00	29.834 
10:45	36.3	36.3	36.3	90	33.7	3	11	248	0.01	29.838 
10:50	36.2	36.2	36.2	90	33.6	2	6	270	0.00	29.840 
10:55	36.2	36.2	36.2	90	33.6	3	7	270	0.00	29.840 
11:00	36.3	36.3	36.3	91	33.9	2	5	248	0.00	29.841 
11:05	36.6	36.6	36.6	91	34.2	2	6	248	0.00	29.839 
11:10	36.6	36.6	36.6	91	34.2	3	11	248	0.01	29.839 
11:15	36.6	33.4	36.6	91	34.2	4	9	248	0.00	29.839 
11:20	36.6	33.4	36.6	91	34.2	4	7	248	0.00	29.839 
11:25	36.8	33.6	36.8	91	34.4	4	11	248	0.00	29.839 
11:30	36.8	33.6	36.8	90	34.1	4	11	248	0.00	29.839 
11:35	36.9	33.7	36.9	90	34.2	4	9	248	0.00	29.839 
11:40	37.0	37.0	37.0	90	34.3	3	11	248	0.00	29.839 
11:45	37.0	37.0	37.0	90	34.3	3	9	248	0.00	29.839 
11:50	37.2	37.2	37.2	90	34.5	3	7	270	0.00	29.838 
11:55	37.5	34.4	37.5	92	35.4	4	10	248	0.00	29.838 
12:00	37.6	37.6	37.6	89	34.7	2	5	248	0.00	29.838 
12:05	37.6	37.6	37.6	88	34.4	3	7	248	0.00	29.838 
12:10	37.3	34.2	37.3	88	34.1	4	11	248	0.00	29.837 
12:15	37.3	34.2	37.3	87	33.8	4	12	270	0.00	29.835 
12:20	37.3	37.3	37.3	87	33.8	3	9	270	0.00	29.837 
12:25	37.3	37.3	37.3	86	33.5	3	10	248	0.00	29.836 
12:30	37.5	37.5	37.5	86	33.7	3	5	248	0.00	29.834 
12:35	37.5	34.4	37.5	85	33.4	4	13	248	0.00	29.833 
12:40	37.6	37.6	37.6	85	33.5	3	10	270	0.00	29.836 
12:45	37.6	37.6	37.6	85	33.5	3	9	270	0.00	29.837 
12:50	37.8	37.8	37.8	84	33.4	3	10	270	0.00	29.837 
12:55	37.8	34.8	37.8	84	33.4	4	11	248	0.00	29.838 
13:00	37.8	37.8	37.8	83	33.1	3	7	248	0.00	29.836 
13:05	37.8	34.8	37.8	82	32.8	4	10	248	0.00	29.837 
13:10	37.8	34.8	37.8	82	32.8	4	9	248	0.00	29.838 
13:15	37.9	34.9	37.9	81	32.6	4	13	248	0.00	29.839 
13:20	37.8	34.8	37.8	81	32.5	4	9	248	0.00	29.839 
13:25	37.8	34.8	37.8	81	32.5	4	9	270	0.00	29.840 
13:30	37.9	37.9	37.9	81	32.6	3	8	248	0.00	29.841 
13:35	37.9	34.9	37.9	80	32.3	4	7	248	0.00	29.842 
13:40	37.8	34.8	37.8	81	32.5	4	10	248	0.00	29.844 
13:45	37.8	34.8	37.8	80	32.2	4	11	270	0.00	29.842 
13:50	37.6	34.5	37.6	81	32.3	4	9	270	0.00	29.845 
13:55	37.5	34.4	37.5	83	32.8	4	13	270	0.00	29.847 
14:00	37.3	37.3	37.3	83	32.6	3	7	248	0.00	29.846 
14:05	37.3	37.3	37.3	84	32.9	3	7	248	0.00	29.845 
14:10	37.2	37.2	37.2	84	32.8	3	10	270	0.00	29.848 
14:15	37.2	37.2	37.2	85	33.1	3	7	248	0.00	29.848 
14:20	37.2	37.2	37.2	86	33.4	2	5	248	0.00	29.848 
14:25	37.2	37.2	37.2	85	33.1	3	7	248	0.00	29.848 
14:30	37.0	37.0	37.0	86	33.2	2	9	270	0.00	29.852 
14:35	36.8	36.8	36.8	87	33.3	2	7	248	0.00	29.853 
14:40	36.5	36.5	36.5	87	33.0	3	5	248	0.00	29.852 
14:45	36.2	36.2	36.2	88	33.0	2	7	248	0.00	29.855 
14:50	36.3	36.3	36.3	88	33.1	2	7	248	0.00	29.856 
14:55	36.5	36.5	36.5	89	33.6	1	4	248	0.00	29.856 
15:00	36.5	36.5	36.5	89	33.6	3	6	248	0.00	29.855 
15:05	36.6	36.6	36.6	89	33.7	2	6	248	0.00	29.855 
15:10	36.6	33.4	36.6	88	33.4	4	10	248	0.00	29.857 
15:15	36.6	36.6	36.6	88	33.4	3	5	248	0.00	29.858 
15:20	36.6	36.6	36.6	88	33.4	3	7	248	0.00	29.859 
15:25	36.6	36.6	36.6	88	33.4	3	9	248	0.00	29.861 
15:30	36.5	36.5	36.5	87	33.0	3	10	248	0.00	29.867 
15:35	36.5	36.5	36.5	87	33.0	3	10	248	0.00	29.867 
15:40	36.3	36.3	36.3	87	32.8	3	8	248	0.00	29.870 
15:45	36.3	36.3	36.3	87	32.8	2	7	248	0.00	29.871 
15:50	36.3	36.3	36.3	87	32.8	3	12	248	0.00	29.871 
15:55	36.3	36.3	36.3	87	32.8	3	10	248	0.00	29.872 
16:00	36.3	36.3	36.3	87	32.8	2	6	248	0.00	29.872 
16:05	36.3	36.3	36.3	86	32.5	3	7	248	0.00	29.871 
16:10	36.5	36.5	36.5	86	32.7	2	9	248	0.00	29.874 
16:15	36.5	36.5	36.5	85	32.4	2	4	225	0.00	29.877 
16:20	36.5	36.5	36.5	85	32.4	2	5	270	0.00	29.879 
16:25	36.6	36.6	36.6	84	32.2	3	9	270	0.00	29.880 
16:30	36.6	32.5	36.6	84	32.2	5	10	270	0.00	29.884 
16:35	36.5	33.3	36.5	84	32.1	4	13	270	0.00	29.886 
16:40	36.3	33.0	36.3	85	32.2	4	10	270	0.00	29.888 
16:45	36.2	36.2	36.2	85	32.1	3	6	248	0.00	29.889 
16:50	36.0	36.0	36.0	85	31.9	3	7	248	0.00	29.889 
16:55	35.9	35.9	35.9	85	31.8	3	11	248	0.00	29.890 
17:00	35.9	35.9	35.9	84	31.5	3	10	248	0.00	29.891 
17:05	35.9	32.6	35.9	84	31.5	4	9	248	0.00	29.894 
17:10	35.8	35.8	35.8	84	31.4	3	10	248	0.00	29.899 
17:15	35.8	35.8	35.8	84	31.4	3	7	270	0.00	29.903 
17:20	35.6	35.6	35.6	83	31.0	3	8	270	0.00	29.903 
17:25	35.3	35.3	35.3	81	30.1	3	9	270	0.00	29.904 
17:30	35.2	35.2	35.2	81	30.0	3	9	270	0.00	29.904 
17:35	35.0	35.0	35.0	82	30.1	2	7	248	0.00	29.904 
17:40	34.9	34.9	34.9	82	30.0	3	5	270	0.00	29.908 
17:45	34.7	34.7	34.7	82	29.8	2	7	270	0.00	29.907 
17:50	34.7	34.7	34.7	82	29.8	2	7	270	0.00	29.906 
17:55	34.7	34.7	34.7	82	29.8	2	6	248	0.00	29.906 
18:00	34.7	34.7	34.7	81	29.5	2	7	248	0.00	29.911 
18:05	34.7	34.7	34.7	81	29.5	3	6	248	0.00	29.916 
18:10	34.7	34.7	34.7	81	29.5	2	4	248	0.00	29.919 
18:15	34.7	34.7	34.7	81	29.5	1	5	248	0.00	29.919 
18:20	34.7	34.7	34.7	82	29.8	1	4	248	0.00	29.917 
18:25	34.7	34.7	34.7	81	29.5	1	3	248	0.00	29.918 
18:30	34.7	34.7	34.7	81	29.5	2	4	248	0.00	29.922 
18:35	34.7	34.7	34.7	80	29.2	2	4	270	0.00	29.923 
18:40	34.9	34.9	34.9	80	29.4	2	3	315	0.00	29.926 
18:45	34.9	34.9	34.9	79	29.1	2	3	248	0.00	29.927 
18:50	34.9	34.9	34.9	77	28.4	2	6	315	0.00	29.931 
18:55	34.9	34.9	34.9	76	28.1	1	6	270	0.00	29.928 
19:00	34.9	34.9	34.9	73	27.1	3	5	270	0.00	29.932 
19:05	34.9	34.9	34.9	72	26.8	2	5	270	0.00	29.936 
19:10	34.7	34.7	34.7	71	26.3	2	4	270	0.00	29.936 
19:15	34.7	34.7	34.7	70	25.9	2	5	270	0.00	29.937 
19:20	34.7	34.7	34.7	71	26.3	2	5	248	0.00	29.938 
19:25	34.7	34.7	34.7	70	25.9	1	5	248	0.00	29.939 
19:30	34.6	34.6	34.6	69	25.5	1	4	270	0.00	29.941 
19:35	34.6	34.6	34.6	70	25.8	1	4	315	0.00	29.942 
19:40	34.6	34.6	34.6	70	25.8	1	4	248	0.00	29.941 
19:45	34.6	34.6	34.6	69	25.5	2	6	248	0.00	29.947 
19:50	34.6	34.6	34.6	69	25.5	2	6	270	0.00	29.951 
19:55	34.4	34.4	34.4	69	25.3	2	5	248	0.00	29.951 
20:00	34.4	34.4	34.4	69	25.3	2	4	248	0.00	29.952 
20:05	34.4	34.4	34.4	69	25.3	1	5	270	0.00	29.953 
20:10	34.3	34.3	34.3	68	24.9	3	9	248	0.00	29.954 
20:15	34.3	34.3	34.3	69	25.2	2	4	248	0.00	29.955 
20:20	34.1	34.1	34.1	69	25.0	2	6	248	0.00	29.954 
20:25	34.1	34.1	34.1	69	25.0	3	7	248	0.00	29.957 
20:30	34.1	34.1	34.1	70	25.4	2	4	248	0.00	29.957 
20:35	34.0	34.0	34.0	71	25.6	2	5	248	0.00	29.956 
20:40	34.0	34.0	34.0	71	25.6	2	6	248	0.00	29.956 
20:45	34.0	34.0	34.0	71	25.6	3	7	248	0.00	29.955 
20:50	33.8	33.8	33.8	72	25.7	2	7	248	0.00	29.958 
20:55	33.8	33.8	33.8	71	25.4	2	7	248	0.00	29.963 
21:00	33.7	33.7	33.7	71	25.3	1	4	248	0.00	29.967 
21:05	33.5	33.5	33.5	70	24.8	1	4	248	0.00	29.968 
21:10	33.5	33.5	33.5	69	24.4	2	4	225	0.00	29.969 
21:15	33.5	33.5	33.5	69	24.4	1	3	248	0.00	29.971 
21:20	33.4	33.4	33.4	68	24.0	1	5	248	0.00	29.973 
21:25	33.4	33.4	33.4	67	23.6	2	6	248	0.00	29.974 
21:30	33.4	33.4	33.4	68	24.0	2	4	248	0.00	29.980 
21:35	33.4	33.4	33.4	69	24.3	1	4	248	0.00	29.984 
21:40	33.4	33.4	33.4	68	24.0	2	7	248	0.00	29.986 
21:45	33.2	33.2	33.2	68	23.8	3	6	248	0.00	29.987 
21:50	33.2	33.2	33.2	69	24.2	3	7	248	0.00	29.988 
21:55	33.1	33.1	33.1	70	24.4	2	7	270	0.00	29.989 
22:00	33.1	33.1	33.1	70	24.4	2	7	270	0.00	29.991 
22:05	32.9	32.9	32.9	70	24.2	3	7	248	0.00	29.994 
22:10	32.9	32.9	32.9	70	24.2	2	7	248	0.00	29.993 
22:15	32.8	29.0	32.8	69	23.8	4	11	270	0.00	29.994 
22:20	32.8	32.8	32.8	69	23.8	3	9	248	0.00	29.995 
22:25	32.7	32.7	32.7	70	24.0	2	5	248	0.00	29.995 
22:30	32.7	32.7	32.7	69	23.7	2	4	248	0.00	29.993 
22:35	32.7	32.7	32.7	69	23.7	3	7	270	0.00	29.997 
22:40	32.5	32.5	32.5	68	23.1	3	6	248	0.00	29.998 
22:45	32.5	32.5	32.5	68	23.1	2	6	270	0.00	29.997 
22:50	32.5	32.5	32.5	68	23.1	2	6	248	0.00	29.999 
22:55	32.4	32.4	32.4	68	23.0	3	9	248	0.00	29.997 
23:00	32.4	32.4	32.4	68	23.0	3	6	248	0.00	29.996 
23:05	32.2	32.2	32.2	68	22.8	3	7	248	0.00	29.996 
23:10	32.1	32.1	32.1	69	23.1	2	5	248	0.00	29.998 
23:15	32.1	32.1	32.1	69	23.1	3	9	270	0.00	29.999 
23:20	31.9	31.9	31.9	69	22.9	1	5	248	0.00	29.999 
23:25	31.8	31.8	31.8	69	22.8	2	5	270	0.00	30.000 
23:30	31.9	28.0	31.9	69	22.9	4	14	270	0.00	30.001 
23:35	31.9	31.9	31.9	68	22.6	3	6	270	0.00	30.001 
23:40	31.9	31.9	31.9	68	22.6	2	9	270	0.00	30.001 
23:45	31.9	31.9	31.9	68	22.6	2	9	270	0.00	30.002 
23:50	31.9	28.0	31.9	67	22.2	4	10	248	0.00	30.003 
23:55	31.9	31.9	31.9	67	22.2	3	7	248	0.00	30.003 

CoCoRaHS
IN-AL-39
A2 Web Hosting
Creative Commons License
GoDaddy
Look for:

loaded 2017-10-16 18:23:47 • last modified 2010-11-18 10:43:29
Privacy PolicyDisclaimer
• wx.awcolley.com is powered by PmWiki v.2002016 •
• all content (unless otherwise noted) © 2017 A W Colley